createdAt,value
2022-11-01T00:03:24.206Z,35.15
2022-11-01T00:07:25.673Z,34.97
2022-11-01T00:11:27.263Z,36.30
2022-11-01T00:15:28.674Z,36.95
2022-11-01T00:19:30.111Z,35.97
2022-11-01T00:23:31.595Z,37.85
2022-11-01T00:27:32.984Z,36.08
2022-11-01T00:31:34.527Z,33.15
2022-11-01T00:35:39.033Z,34.25
2022-11-01T00:39:40.528Z,32.80
2022-11-01T00:43:41.906Z,32.45
2022-11-01T00:47:43.281Z,30.65
2022-11-01T00:51:44.653Z,30.75
2022-11-01T00:55:46.177Z,32.70
2022-11-01T00:59:47.617Z,30.40
2022-11-01T01:03:49.062Z,31.25
2022-11-01T01:07:50.535Z,30.98
2022-11-01T01:11:52.015Z,29.70
2022-11-01T01:15:53.466Z,32.15
2022-11-01T01:19:54.860Z,32.40
2022-11-01T01:23:56.378Z,31.70
2022-11-01T01:27:57.952Z,29.92
2022-11-01T01:31:59.409Z,31.33
2022-11-01T01:36:01.939Z,31.13
2022-11-01T01:40:04.045Z,31.33
2022-11-01T01:44:42.558Z,30.75
2022-11-01T01:48:48.412Z,29.27
2022-11-01T01:53:16.093Z,28.08
2022-11-01T01:57:19.057Z,28.80
2022-11-01T02:01:20.972Z,26.77
2022-11-01T02:05:30.791Z,26.35
2022-11-01T02:09:33.213Z,29.20
2022-11-01T02:13:35.573Z,28.73
2022-11-01T02:18:04.452Z,28.85
2022-11-01T02:22:41.449Z,30.75
2022-11-01T02:27:05.704Z,30.83
2022-11-01T02:31:44.528Z,29.35
2022-11-01T02:36:02.386Z,30.05
2022-11-01T02:40:11.783Z,31.20
2022-11-01T02:44:18.859Z,31.75
2022-11-01T02:48:23.037Z,31.67
2022-11-01T02:52:25.436Z,29.13
2022-11-01T02:56:26.935Z,30.45
2022-11-01T03:00:36.523Z,29.77
2022-11-01T03:08:48.419Z,28.70
2022-11-01T03:12:58.953Z,28.17
2022-11-01T03:17:13.526Z,28.73
2022-11-01T03:21:23.453Z,27.45
2022-11-01T03:25:39.542Z,28.08
2022-11-01T03:29:45.938Z,27.33
2022-11-01T03:33:54.801Z,27.48
2022-11-01T03:38:01.654Z,28.30
2022-11-01T03:42:07.760Z,27.15
2022-11-01T03:46:09.627Z,27.60
2022-11-01T03:50:20.205Z,28.63
2022-11-01T03:54:21.704Z,28.48
2022-11-01T03:58:23.140Z,26.83
2022-11-01T04:02:24.540Z,28.50
2022-11-01T04:06:26.032Z,28.45
2022-11-01T04:10:29.190Z,29.27
2022-11-01T04:14:49.106Z,28.67
2022-11-01T04:19:09.093Z,29.98
2022-11-01T04:23:10.676Z,30.20
2022-11-01T04:27:12.059Z,27.75
2022-11-01T04:31:13.486Z,29.60
2022-11-01T04:35:15.166Z,30.52
2022-11-01T04:39:16.556Z,30.38
2022-11-01T04:43:18.009Z,29.33
2022-11-01T04:47:19.441Z,31.63
2022-11-01T04:51:20.834Z,30.52
2022-11-01T04:55:22.195Z,30.70
2022-11-01T04:59:23.653Z,32.10
2022-11-01T05:03:25.030Z,32.00
2022-11-01T05:07:26.400Z,28.60
2022-11-01T05:11:28.078Z,30.88
2022-11-01T05:15:29.486Z,31.88
2022-11-01T05:19:30.894Z,31.60
2022-11-01T05:23:35.169Z,32.10
2022-11-01T05:27:37.665Z,30.25
2022-11-01T05:31:39.103Z,34.03
2022-11-01T05:35:40.576Z,33.88
2022-11-01T05:39:42.036Z,31.67
2022-11-01T05:43:43.437Z,31.55
2022-11-01T05:47:44.885Z,32.65
2022-11-01T05:51:46.292Z,32.10
2022-11-01T05:55:47.748Z,33.33
2022-11-01T05:59:49.127Z,31.55
2022-11-01T06:03:50.658Z,31.60
2022-11-01T06:07:52.094Z,29.60
2022-11-01T06:11:53.478Z,33.08
2022-11-01T06:15:59.788Z,34.30
2022-11-01T06:20:01.217Z,32.28
2022-11-01T06:24:03.029Z,32.47
2022-11-01T06:28:04.775Z,30.48
2022-11-01T06:32:06.587Z,31.98
2022-11-01T06:36:08.176Z,31.15
2022-11-01T06:40:10.907Z,31.08
2022-11-01T06:44:12.374Z,29.33
2022-11-01T06:48:13.751Z,29.27
2022-11-01T06:52:15.269Z,30.42
2022-11-01T06:56:16.740Z,28.85
2022-11-01T07:00:18.184Z,27.42
2022-11-01T07:04:19.672Z,29.05
2022-11-01T07:08:21.050Z,27.50
2022-11-01T07:12:22.406Z,27.27
2022-11-01T07:16:23.771Z,27.00
2022-11-01T07:20:26.425Z,28.60
2022-11-01T07:24:27.837Z,26.60
2022-11-01T07:28:29.325Z,26.33
2022-11-01T07:32:30.726Z,26.08
2022-11-01T07:36:32.231Z,25.88
2022-11-01T07:40:33.584Z,25.02
2022-11-01T07:44:34.978Z,25.77
2022-11-01T07:48:36.924Z,26.80
2022-11-01T07:52:38.513Z,23.42
2022-11-01T07:56:39.912Z,23.35
2022-11-01T08:00:42.996Z,24.17
2022-11-01T08:04:44.400Z,24.33
2022-11-01T08:08:46.425Z,22.15
2022-11-01T08:12:47.900Z,21.80
2022-11-01T08:16:55.533Z,21.75
2022-11-01T08:20:57.972Z,20.75
2022-11-01T08:24:59.630Z,18.95
2022-11-01T08:29:01.080Z,19.27
2022-11-01T08:33:04.500Z,18.63
2022-11-01T08:37:06.615Z,19.27
2022-11-01T08:41:08.012Z,17.17
2022-11-01T08:45:10.141Z,17.00
2022-11-01T08:49:13.029Z,15.63
2022-11-01T08:53:15.302Z,15.73
2022-11-01T08:57:17.100Z,15.63
2022-11-01T09:01:18.871Z,16.30
2022-11-01T09:05:20.600Z,14.77
2022-11-01T09:09:22.013Z,14.35
2022-11-01T09:13:23.490Z,14.05
2022-11-01T09:17:24.926Z,13.48
2022-11-01T09:21:30.591Z,12.30
2022-11-01T09:25:33.905Z,12.60
2022-11-01T09:29:35.561Z,12.70
2022-11-01T09:33:37.125Z,11.90
2022-11-01T09:37:38.538Z,11.35
2022-11-01T09:41:48.497Z,12.52
2022-11-01T09:45:54.849Z,12.98
2022-11-01T09:50:17.577Z,12.90
2022-11-01T09:54:25.688Z,12.23
2022-11-01T09:58:44.498Z,12.32
2022-11-01T10:03:15.777Z,10.65
2022-11-01T10:07:43.191Z,11.68
2022-11-01T10:12:09.454Z,11.68
2022-11-01T10:16:10.796Z,11.10
2022-11-01T10:20:14.553Z,11.80
2022-11-01T10:24:29.884Z,10.65
2022-11-01T10:28:34.365Z,9.55
2022-11-01T10:33:02.263Z,10.50
2022-11-01T10:37:22.783Z,9.73
2022-11-01T10:41:41.096Z,12.32
2022-11-01T10:45:47.595Z,8.07
2022-11-01T10:50:10.066Z,7.68
2022-11-01T10:54:18.663Z,7.43
2022-11-01T10:58:49.476Z,8.30
2022-11-01T11:02:57.028Z,7.47
2022-11-01T11:06:58.614Z,6.38
2022-11-01T11:11:07.690Z,5.80
2022-11-01T11:15:22.514Z,5.80
2022-11-01T11:19:29.748Z,4.65
2022-11-01T11:23:34.571Z,4.22
2022-11-01T11:27:36.369Z,5.25
2022-11-01T11:31:37.924Z,5.90
2022-11-01T11:35:40.476Z,5.70
2022-11-01T11:39:58.810Z,6.30
2022-11-01T11:44:00.350Z,3.97
2022-11-01T11:48:22.786Z,4.95
2022-11-01T11:52:36.881Z,3.95
2022-11-01T11:56:39.778Z,4.80
2022-11-01T12:00:46.741Z,4.55
2022-11-01T12:05:01.482Z,4.75
2022-11-01T12:09:03.804Z,5.53
2022-11-01T12:13:24.133Z,5.38
2022-11-01T12:17:46.350Z,5.13
2022-11-01T12:21:47.928Z,5.80
2022-11-01T12:25:50.237Z,6.05
2022-11-01T12:29:57.405Z,5.45
2022-11-01T12:34:05.128Z,5.60
2022-11-01T12:38:28.332Z,5.65
2022-11-01T12:42:39.994Z,6.30
2022-11-01T12:46:49.096Z,6.18
2022-11-01T12:50:56.506Z,6.68
2022-11-01T12:55:05.387Z,6.25
2022-11-01T12:59:13.392Z,6.32
2022-11-01T13:03:37.240Z,5.22
2022-11-01T13:08:03.548Z,5.47
2022-11-01T13:12:23.744Z,5.97
2022-11-01T13:16:36.514Z,5.63
2022-11-01T13:20:50.514Z,5.50
2022-11-01T13:25:01.660Z,5.57
2022-11-01T13:29:26.884Z,5.03
2022-11-01T13:33:39.554Z,6.28
2022-11-01T13:37:53.054Z,6.60
2022-11-01T13:42:18.029Z,5.10
2022-11-01T13:46:46.142Z,4.72
2022-11-01T13:51:14.205Z,5.38
2022-11-01T13:55:27.727Z,4.28
2022-11-01T13:59:37.264Z,4.20
2022-11-01T14:03:38.698Z,4.68
2022-11-01T14:07:43.085Z,4.22
2022-11-01T14:11:50.460Z,3.72
2022-11-01T14:15:54.608Z,5.10
2022-11-01T14:19:57.236Z,4.88
2022-11-01T14:24:00.387Z,4.15
2022-11-01T14:28:16.711Z,4.13
2022-11-01T14:32:19.754Z,4.05
2022-11-01T14:36:25.104Z,3.80
2022-11-01T14:40:41.921Z,4.22
2022-11-01T14:44:50.443Z,4.47
2022-11-01T14:48:55.247Z,3.75
2022-11-01T14:53:04.503Z,4.70
2022-11-01T15:01:25.184Z,4.68
2022-11-01T15:05:27.210Z,4.90
2022-11-01T15:09:30.929Z,4.90
2022-11-01T15:13:38.367Z,5.00
2022-11-01T15:17:40.630Z,4.22
2022-11-01T15:21:47.084Z,4.47
2022-11-01T15:25:53.022Z,4.60
2022-11-01T15:29:55.390Z,5.00
2022-11-01T15:34:00.221Z,5.43
2022-11-01T15:38:01.613Z,5.25
2022-11-01T15:42:14.195Z,4.53
2022-11-01T15:46:15.701Z,5.30
2022-11-01T15:50:17.306Z,5.45
2022-11-01T15:54:38.781Z,4.97
2022-11-01T15:58:46.019Z,5.55
2022-11-01T16:03:07.909Z,5.43
2022-11-01T16:07:15.329Z,7.22
2022-11-01T16:11:22.594Z,7.93
2022-11-01T16:15:28.447Z,7.38
2022-11-01T16:19:51.411Z,10.77
2022-11-01T16:23:55.603Z,9.07
2022-11-01T16:28:30.632Z,17.10
2022-11-01T16:32:33.690Z,7.97
2022-11-01T16:36:38.332Z,10.15
2022-11-01T16:40:39.732Z,10.50
2022-11-01T16:44:41.263Z,12.90
2022-11-01T16:48:55.370Z,11.70
2022-11-01T16:52:56.941Z,12.30
2022-11-01T16:56:58.698Z,13.80
2022-11-01T17:01:03.067Z,12.98
2022-11-01T17:05:30.566Z,11.77
2022-11-01T17:09:33.284Z,9.50
2022-11-01T17:13:42.153Z,8.73
2022-11-01T17:17:47.240Z,7.68
2022-11-01T17:21:49.557Z,7.55
2022-11-01T17:25:53.238Z,8.18
2022-11-01T17:29:54.637Z,9.23
2022-11-01T17:33:56.091Z,15.85
2022-11-01T17:37:57.576Z,11.73
2022-11-01T17:41:59.504Z,16.40
2022-11-01T17:46:02.243Z,16.52
2022-11-01T17:50:03.953Z,17.38
2022-11-01T17:54:05.428Z,11.80
2022-11-01T17:58:07.961Z,10.93
2022-11-01T18:02:10.531Z,9.77
2022-11-01T18:06:12.366Z,8.90
2022-11-01T18:10:26.001Z,8.57
2022-11-01T18:15:29.664Z,10.38
2022-11-01T18:19:39.850Z,10.77
2022-11-01T18:23:44.034Z,9.98
2022-11-01T18:27:45.526Z,10.73
2022-11-01T18:31:59.104Z,10.48
2022-11-01T18:36:25.827Z,9.18
2022-11-01T18:40:43.303Z,8.50
2022-11-01T18:44:44.718Z,8.75
2022-11-01T18:48:46.233Z,7.65
2022-11-01T18:52:47.853Z,8.10
2022-11-01T18:57:14.392Z,9.63
2022-11-01T19:01:20.851Z,9.10
2022-11-01T19:05:23.230Z,9.07
2022-11-01T19:09:29.058Z,7.53
2022-11-01T19:13:34.137Z,8.93
2022-11-01T19:17:38.695Z,9.50
2022-11-01T19:21:40.141Z,9.30
2022-11-01T19:25:43.582Z,9.75
2022-11-01T19:29:45.108Z,9.48
2022-11-01T19:33:48.099Z,8.90
2022-11-01T19:37:53.356Z,9.43
2022-11-01T19:42:00.393Z,7.25
2022-11-01T19:46:01.836Z,9.20
2022-11-01T19:50:21.990Z,9.70
2022-11-01T19:54:23.492Z,11.00
2022-11-01T19:58:30.933Z,10.15
2022-11-01T20:02:32.701Z,11.00
2022-11-01T20:06:38.998Z,10.13
2022-11-01T20:10:40.686Z,10.02
2022-11-01T20:14:42.118Z,10.23
2022-11-01T20:18:43.546Z,9.52
2022-11-01T20:22:54.913Z,8.50
2022-11-01T20:27:01.842Z,9.02
2022-11-01T20:31:05.241Z,11.70
2022-11-01T20:35:07.190Z,9.80
2022-11-01T20:39:12.987Z,9.35
2022-11-01T20:43:16.973Z,10.32
2022-11-01T20:47:18.372Z,10.18
2022-11-01T20:51:19.917Z,8.18
2022-11-01T20:55:21.756Z,10.43
2022-11-01T20:59:23.139Z,10.43
2022-11-01T21:03:25.906Z,11.32
2022-11-01T21:07:32.755Z,8.00
2022-11-01T21:11:46.978Z,10.85
2022-11-01T21:15:48.670Z,10.05
2022-11-01T21:19:56.405Z,9.18
2022-11-01T21:23:58.685Z,13.02
2022-11-01T21:28:02.740Z,8.68
2022-11-01T21:32:22.501Z,9.55
2022-11-01T21:36:32.621Z,10.45
2022-11-01T21:40:34.081Z,9.35
2022-11-01T21:44:38.779Z,12.50
2022-11-01T21:48:40.268Z,8.63
2022-11-01T21:52:41.672Z,7.22
2022-11-01T21:56:43.078Z,7.85
2022-11-01T22:00:44.487Z,9.18
2022-11-01T22:04:46.150Z,9.32
2022-11-01T22:08:47.641Z,9.30
2022-11-01T22:12:49.109Z,6.45
2022-11-01T22:16:51.225Z,6.43
2022-11-01T22:20:52.966Z,6.60
2022-11-01T22:24:54.398Z,7.82
2022-11-01T22:28:56.006Z,8.43
2022-11-01T22:32:57.406Z,5.35
2022-11-01T22:37:00.291Z,7.15
2022-11-01T22:41:10.546Z,6.03
2022-11-01T22:45:14.841Z,6.75
2022-11-01T22:49:28.887Z,6.28
2022-11-01T22:53:31.006Z,6.07
2022-11-01T22:57:36.280Z,6.35
2022-11-01T23:01:37.907Z,6.55
2022-11-01T23:05:41.786Z,6.65
2022-11-01T23:09:45.096Z,6.70
2022-11-01T23:13:59.407Z,6.38
2022-11-01T23:18:11.557Z,6.57
2022-11-01T23:22:24.713Z,7.32
2022-11-01T23:26:26.167Z,7.38
2022-11-01T23:30:27.992Z,7.18
2022-11-01T23:34:29.400Z,6.63
2022-11-01T23:39:00.424Z,6.30
2022-11-01T23:43:02.372Z,6.57
2022-11-01T23:47:37.051Z,6.18
2022-11-01T23:51:38.553Z,7.72
2022-11-01T23:55:43.767Z,7.38
2022-11-01T23:59:46.993Z,7.80
